createdAt,value
2018-05-10T14:40:47.798Z,100563.59
2018-05-10T14:43:19.731Z,100566.49
2018-05-10T14:45:49.454Z,100560.73
2018-05-10T14:48:18.350Z,100562.78
2018-05-10T14:50:49.058Z,100564.94
2018-05-10T14:53:20.230Z,100568.45
2018-05-10T14:55:49.431Z,100574.99
2018-05-10T14:58:21.168Z,100579.88
2018-05-10T15:00:50.387Z,100579.84
2018-05-10T15:03:19.482Z,100578.98
2018-05-10T15:05:49.914Z,100582.41
2018-05-10T15:08:19.696Z,100588.84
2018-05-10T15:10:50.694Z,100586.45
2018-05-10T15:13:20.720Z,100591.45
2018-05-10T15:15:50.075Z,100589.27
2018-05-10T15:18:19.572Z,100585.23
2018-05-10T15:20:49.071Z,100591.39
2018-05-10T15:23:21.424Z,100593.44
2018-05-10T15:25:50.420Z,100600.48
2018-05-10T15:28:19.381Z,100600.00
2018-05-10T15:30:49.008Z,100600.36
2018-05-10T15:33:19.026Z,100604.66
2018-05-10T15:35:50.664Z,100605.75
2018-05-10T15:38:19.753Z,100606.13
2018-05-10T15:40:50.255Z,100608.45
2018-05-10T15:43:19.840Z,100614.38
2018-05-10T15:45:49.990Z,100607.04
2018-05-10T15:48:20.106Z,100613.35
2018-05-10T15:50:50.373Z,100611.44
2018-05-10T15:53:21.084Z,100618.52
2018-05-10T15:55:50.881Z,100623.84
2018-05-10T16:01:18.867Z,100626.23
2018-05-10T16:03:49.988Z,100620.99
2018-05-10T16:06:20.866Z,100624.34
2018-05-10T16:08:50.262Z,100627.55
2018-05-10T16:11:21.126Z,100625.56
2018-05-10T16:13:51.044Z,100628.62
2018-05-10T16:16:21.483Z,100626.41
2018-05-10T16:18:50.719Z,100630.08
2018-05-10T16:21:21.020Z,100636.42
2018-05-10T16:23:50.297Z,100641.57
2018-05-10T16:26:19.789Z,100648.42
2018-05-10T16:28:50.731Z,100659.69
2018-05-10T16:31:19.962Z,100656.92
2018-05-10T16:33:49.978Z,100661.66
2018-05-10T16:36:20.454Z,100666.22
2018-05-10T16:38:49.836Z,100665.31
2018-05-10T16:41:19.591Z,100668.44
2018-05-10T16:43:49.660Z,100668.19
2018-05-10T16:46:21.354Z,100682.53
2018-05-10T16:48:50.658Z,100684.86
2018-05-10T16:51:19.917Z,100689.33
2018-05-10T16:53:49.147Z,100686.95
2018-05-10T16:56:20.055Z,100698.90
2018-05-10T16:58:49.868Z,100700.22
2018-05-10T17:01:23.064Z,100712.17
2018-05-10T17:03:51.520Z,100706.62
2018-05-10T17:06:20.356Z,100714.56
2018-05-10T17:08:52.247Z,100717.99
2018-05-10T17:11:20.934Z,100722.75
2018-05-10T17:13:49.721Z,100731.04
2018-05-10T17:16:22.775Z,100731.05
2018-05-10T17:18:53.025Z,100743.31
2018-05-10T17:21:22.623Z,100744.83
2018-05-10T17:23:51.833Z,100744.91
2018-05-10T17:26:21.540Z,100758.29
2018-05-10T17:28:50.955Z,100757.12
2018-05-10T17:31:19.714Z,100763.44
2018-05-10T17:33:50.602Z,100766.00
2018-05-10T17:36:22.829Z,100771.50
2018-05-10T17:38:52.159Z,100780.14
2018-05-10T17:41:22.012Z,100779.77
2018-05-10T17:43:52.341Z,100785.73
2018-05-10T17:46:23.806Z,100787.64
2018-05-10T17:48:54.211Z,100792.84
2018-05-10T17:51:29.344Z,100793.46
2018-05-10T17:53:58.945Z,100810.71
2018-05-10T17:56:27.977Z,100810.48
2018-05-10T17:58:57.487Z,100816.93
2018-05-10T18:01:27.289Z,100818.61
2018-05-10T18:03:56.925Z,100811.47
2018-05-10T18:06:27.905Z,100825.23
2018-05-10T18:08:58.341Z,100834.69
2018-05-10T18:11:28.079Z,100839.56
2018-05-10T18:13:57.744Z,100847.34
2018-05-10T18:16:26.656Z,100852.66
2018-05-10T18:18:57.100Z,100858.20
2018-05-10T18:21:26.963Z,100864.09
2018-05-10T18:23:57.238Z,100872.74
2018-05-10T18:26:27.011Z,100866.84
2018-05-10T18:28:57.267Z,100874.88
2018-05-10T18:31:27.945Z,100882.04
2018-05-10T18:34:01.053Z,100883.41
2018-05-10T18:36:38.543Z,100885.13
2018-05-10T18:39:08.326Z,100887.16
2018-05-10T18:41:38.817Z,100889.16
2018-05-10T18:44:09.398Z,100891.65
2018-05-10T18:46:40.816Z,100900.36
2018-05-10T18:49:11.386Z,100903.53
2018-05-10T18:51:41.053Z,100915.84
2018-05-10T18:54:10.930Z,100919.41
2018-05-10T18:56:40.692Z,100919.51
2018-05-10T18:59:12.763Z,100925.86
2018-05-10T19:01:42.460Z,100934.83
2018-05-10T19:04:12.248Z,100928.12
2018-05-10T19:06:41.761Z,100939.75
2018-05-10T19:09:12.222Z,100951.61
2018-05-10T19:11:41.796Z,100948.31
2018-05-10T19:14:11.374Z,100958.27
2018-05-10T19:16:41.733Z,100970.27
2018-05-10T19:19:12.883Z,100961.42
2018-05-10T19:21:42.577Z,100969.77
2018-05-10T19:24:14.191Z,100974.53
2018-05-10T19:26:44.900Z,100983.19
2018-05-10T19:29:14.749Z,100984.80
2018-05-10T19:31:44.465Z,100994.36
2018-05-10T19:34:14.467Z,100993.98
2018-05-10T19:36:45.022Z,100994.20
2018-05-10T19:39:14.966Z,101013.52
2018-05-10T19:41:44.694Z,101013.48
2018-05-10T19:44:15.361Z,101019.71
2018-05-10T19:46:45.040Z,101021.71
2018-05-10T19:49:28.720Z,101025.13
2018-05-10T19:51:58.389Z,101031.26
2018-05-10T19:54:28.135Z,101029.86
2018-05-10T19:56:58.562Z,101031.41
2018-05-10T19:59:28.485Z,101040.59
2018-05-10T20:01:58.203Z,101044.49
2018-05-10T20:04:27.951Z,101044.22
2018-05-10T20:06:57.673Z,101058.62
2018-05-10T20:09:27.521Z,101058.78
2018-05-10T20:11:57.220Z,101056.93
2018-05-10T20:14:28.939Z,101054.05
2018-05-10T20:16:59.427Z,101067.55
2018-05-10T20:19:30.430Z,101071.91
2018-05-10T20:22:00.173Z,101073.77
2018-05-10T20:24:29.901Z,101081.16
2018-05-10T20:26:59.469Z,101090.02
2018-05-10T20:29:29.002Z,101088.72
2018-05-10T20:31:58.078Z,101099.10
2018-05-10T20:34:27.478Z,101097.75
2018-05-10T20:36:57.169Z,101098.77
2018-05-10T20:39:25.724Z,101096.66
2018-05-10T20:41:54.227Z,101095.25
2018-05-10T20:44:22.800Z,101097.55
2018-05-10T20:46:52.183Z,101101.57
2018-05-10T20:49:20.734Z,101108.03
2018-05-10T20:51:49.208Z,101106.31
2018-05-10T20:54:17.806Z,101106.31
2018-05-10T20:56:46.377Z,101112.86
2018-05-10T20:59:14.805Z,101112.75
2018-05-10T21:01:44.251Z,101121.58
2018-05-10T21:04:13.090Z,101119.58
2018-05-10T21:09:41.933Z,101121.80
2018-05-10T21:12:10.496Z,101123.34
2018-05-10T21:14:39.786Z,101125.73
2018-05-10T21:17:08.244Z,101127.30
2018-05-10T21:19:36.756Z,101134.89
2018-05-10T21:22:06.004Z,101134.62
2018-05-10T21:24:34.484Z,101146.77
2018-05-10T21:27:02.986Z,101143.22
2018-05-10T21:29:32.207Z,101151.20
2018-05-10T21:32:01.415Z,101148.93
2018-05-10T21:34:29.907Z,101150.03
2018-05-10T21:36:58.411Z,101156.71
2018-05-10T21:39:27.019Z,101159.91
2018-05-10T21:41:55.566Z,101165.62
2018-05-10T21:44:24.078Z,101163.80
2018-05-10T21:46:52.641Z,101170.50
2018-05-10T21:49:38.891Z,101177.86
2018-05-10T21:52:08.091Z,101178.27
2018-05-10T21:54:36.553Z,101179.34
2018-05-10T21:57:04.974Z,101182.41
2018-05-10T21:59:33.543Z,101181.46
2018-05-10T22:02:02.786Z,101184.55
2018-05-10T22:17:02.742Z,101182.12
2018-05-10T22:19:31.898Z,101182.95
2018-05-10T22:25:11.289Z,101181.07
2018-05-10T22:27:41.860Z,101180.11
2018-05-10T22:30:11.694Z,101182.40
2018-05-10T22:32:43.450Z,101175.83
2018-05-10T22:35:12.321Z,101179.85
2018-05-10T22:37:41.531Z,101182.63
2018-05-10T22:40:13.413Z,101187.20
2018-05-10T22:42:42.352Z,101190.55
2018-05-10T22:45:11.681Z,101192.41
2018-05-10T22:47:43.959Z,101197.70
2018-05-10T22:50:12.727Z,101201.74
2018-05-10T22:52:41.423Z,101202.34
2018-05-10T22:55:12.685Z,101205.89
2018-05-10T22:57:41.344Z,101207.83
2018-05-10T23:00:11.746Z,101213.59
2018-05-10T23:02:41.472Z,101214.62
2018-05-10T23:05:11.924Z,101214.39
2018-05-10T23:07:42.870Z,101214.05
2018-05-10T23:13:11.522Z,101220.91
2018-05-10T23:15:41.284Z,101222.26
2018-05-10T23:18:13.069Z,101220.34
2018-05-10T23:20:42.320Z,101223.47
2018-05-10T23:23:12.260Z,101230.11
2018-05-10T23:25:41.946Z,101224.30
2018-05-10T23:28:12.051Z,101229.48
2018-05-10T23:30:41.822Z,101234.41
2018-05-10T23:33:11.269Z,101228.73
2018-05-10T23:35:45.613Z,101224.67
2018-05-10T23:38:15.395Z,101220.59
2018-05-10T23:40:43.973Z,101228.59
2018-05-10T23:43:12.520Z,101229.87
2018-05-10T23:45:41.227Z,101224.38
2018-05-10T23:48:11.690Z,101231.38
2018-05-10T23:50:41.974Z,101225.95
2018-05-10T23:53:11.346Z,101225.77
2018-05-10T23:55:43.829Z,101232.19
2018-05-10T23:58:13.164Z,101234.10
